sensor_id;sensor_type;location;lat;lon;timestamp;temperature;humidity
3842;DHT22;1936;47.074;15.336;2023-12-20T00:00:49;2.50;99.90
3842;DHT22;1936;47.074;15.336;2023-12-20T00:02:53;2.70;99.90
3842;DHT22;1936;47.074;15.336;2023-12-20T00:04:56;2.50;99.90
3842;DHT22;1936;47.074;15.336;2023-12-20T00:07:00;2.60;99.90
3842;DHT22;1936;47.074;15.336;2023-12-20T00:09:03;3.00;99.90
3842;DHT22;1936;47.074;15.336;2023-12-20T00:11:08;3.20;99.90
3842;DHT22;1936;47.074;15.336;2023-12-20T00:13:12;3.20;99.90
3842;DHT22;1936;47.074;15.336;2023-12-20T00:15:15;3.00;99.90
3842;DHT22;1936;47.074;15.336;2023-12-20T00:17:19;2.80;99.90
3842;DHT22;1936;47.074;15.336;2023-12-20T00:19:22;2.80;99.90
3842;DHT22;1936;47.074;15.336;2023-12-20T00:21:26;2.60;99.90
3842;DHT22;1936;47.074;15.336;2023-12-20T00:23:29;2.50;99.90
3842;DHT22;1936;47.074;15.336;2023-12-20T00:25:33;2.80;99.90
3842;DHT22;1936;47.074;15.336;2023-12-20T00:27:38;2.80;99.90
3842;DHT22;1936;47.074;15.336;2023-12-20T00:29:42;3.20;99.90
3842;DHT22;1936;47.074;15.336;2023-12-20T00:31:46;3.20;99.90
3842;DHT22;1936;47.074;15.336;2023-12-20T00:33:50;3.20;99.90
3842;DHT22;1936;47.074;15.336;2023-12-20T00:35:53;3.20;99.90
3842;DHT22;1936;47.074;15.336;2023-12-20T00:37:59;3.00;99.90
3842;DHT22;1936;47.074;15.336;2023-12-20T00:40:02;2.90;99.90
3842;DHT22;1936;47.074;15.336;2023-12-20T00:42:06;2.90;99.90
3842;DHT22;1936;47.074;15.336;2023-12-20T00:44:11;3.00;99.90
3842;DHT22;1936;47.074;15.336;2023-12-20T00:46:15;3.20;99.90
3842;DHT22;1936;47.074;15.336;2023-12-20T00:48:17;3.50;99.90
3842;DHT22;1936;47.074;15.336;2023-12-20T00:50:20;3.00;99.90
3842;DHT22;1936;47.074;15.336;2023-12-20T00:52:27;2.60;99.90
3842;DHT22;1936;47.074;15.336;2023-12-20T00:54:31;2.50;99.90
3842;DHT22;1936;47.074;15.336;2023-12-20T00:56:35;2.60;99.90
3842;DHT22;1936;47.074;15.336;2023-12-20T00:58:38;2.60;99.90
3842;DHT22;1936;47.074;15.336;2023-12-20T01:00:43;2.40;99.90
3842;DHT22;1936;47.074;15.336;2023-12-20T01:02:47;2.40;99.90
3842;DHT22;1936;47.074;15.336;2023-12-20T01:04:52;2.50;99.90
3842;DHT22;1936;47.074;15.336;2023-12-20T01:06:55;2.50;99.90
3842;DHT22;1936;47.074;15.336;2023-12-20T01:08:57;2.80;99.90
3842;DHT22;1936;47.074;15.336;2023-12-20T01:11:03;3.20;99.90
3842;DHT22;1936;47.074;15.336;2023-12-20T01:13:07;3.30;99.90
3842;DHT22;1936;47.074;15.336;2023-12-20T01:15:11;3.80;99.90
3842;DHT22;1936;47.074;15.336;2023-12-20T01:17:16;3.80;99.90
3842;DHT22;1936;47.074;15.336;2023-12-20T01:19:19;3.90;99.90
3842;DHT22;1936;47.074;15.336;2023-12-20T01:21:23;4.20;99.30
3842;DHT22;1936;47.074;15.336;2023-12-20T01:23:27;4.10;98.20
3842;DHT22;1936;47.074;15.336;2023-12-20T01:25:30;4.10;98.00
3842;DHT22;1936;47.074;15.336;2023-12-20T01:27:33;3.70;99.90
3842;DHT22;1936;47.074;15.336;2023-12-20T01:29:36;3.60;99.90
3842;DHT22;1936;47.074;15.336;2023-12-20T01:31:40;3.20;99.90
3842;DHT22;1936;47.074;15.336;2023-12-20T01:33:45;3.40;99.90
3842;DHT22;1936;47.074;15.336;2023-12-20T01:35:49;3.40;99.90
3842;DHT22;1936;47.074;15.336;2023-12-20T01:37:52;3.50;99.90
3842;DHT22;1936;47.074;15.336;2023-12-20T01:39:58;3.80;99.90
3842;DHT22;1936;47.074;15.336;2023-12-20T01:42:02;4.30;96.10
3842;DHT22;1936;47.074;15.336;2023-12-20T01:44:05;4.40;94.40
3842;DHT22;1936;47.074;15.336;2023-12-20T01:46:09;4.40;93.60
3842;DHT22;1936;47.074;15.336;2023-12-20T01:48:12;4.30;94.30
3842;DHT22;1936;47.074;15.336;2023-12-20T01:50:18;4.40;93.90
3842;DHT22;1936;47.074;15.336;2023-12-20T01:52:21;4.40;94.10
3842;DHT22;1936;47.074;15.336;2023-12-20T01:54:24;4.40;94.00
3842;DHT22;1936;47.074;15.336;2023-12-20T01:56:29;4.30;93.70
3842;DHT22;1936;47.074;15.336;2023-12-20T01:58:33;4.20;94.20
3842;DHT22;1936;47.074;15.336;2023-12-20T02:00:37;4.20;94.00
3842;DHT22;1936;47.074;15.336;2023-12-20T02:02:40;4.40;93.30
3842;DHT22;1936;47.074;15.336;2023-12-20T02:04:44;4.40;92.80
3842;DHT22;1936;47.074;15.336;2023-12-20T02:06:52;4.30;92.70
3842;DHT22;1936;47.074;15.336;2023-12-20T02:08:56;4.40;92.30
3842;DHT22;1936;47.074;15.336;2023-12-20T02:11:00;4.30;93.20
3842;DHT22;1936;47.074;15.336;2023-12-20T02:13:03;4.20;93.60
3842;DHT22;1936;47.074;15.336;2023-12-20T02:15:07;4.30;92.70
3842;DHT22;1936;47.074;15.336;2023-12-20T02:17:10;4.40;91.90
3842;DHT22;1936;47.074;15.336;2023-12-20T02:19:14;4.40;91.30
3842;DHT22;1936;47.074;15.336;2023-12-20T02:21:18;4.30;92.20
3842;DHT22;1936;47.074;15.336;2023-12-20T02:23:21;4.30;92.00
3842;DHT22;1936;47.074;15.336;2023-12-20T02:25:25;4.30;92.00
3842;DHT22;1936;47.074;15.336;2023-12-20T02:27:29;4.30;91.90
3842;DHT22;1936;47.074;15.336;2023-12-20T02:29:32;4.20;92.10
3842;DHT22;1936;47.074;15.336;2023-12-20T02:31:36;4.20;91.90
3842;DHT22;1936;47.074;15.336;2023-12-20T02:33:39;4.20;92.10
3842;DHT22;1936;47.074;15.336;2023-12-20T02:35:44;4.20;92.50
3842;DHT22;1936;47.074;15.336;2023-12-20T02:37:46;4.20;92.40
3842;DHT22;1936;47.074;15.336;2023-12-20T02:39:51;4.10;92.40
3842;DHT22;1936;47.074;15.336;2023-12-20T02:41:55;3.90;92.50
3842;DHT22;1936;47.074;15.336;2023-12-20T02:43:58;3.80;92.80
3842;DHT22;1936;47.074;15.336;2023-12-20T02:46:01;3.60;94.00
3842;DHT22;1936;47.074;15.336;2023-12-20T02:48:05;3.50;95.60
3842;DHT22;1936;47.074;15.336;2023-12-20T02:50:09;3.50;98.10
3842;DHT22;1936;47.074;15.336;2023-12-20T02:52:12;3.60;97.20
3842;DHT22;1936;47.074;15.336;2023-12-20T02:54:15;3.60;97.30
3842;DHT22;1936;47.074;15.336;2023-12-20T02:56:20;3.80;95.50
3842;DHT22;1936;47.074;15.336;2023-12-20T02:58:23;3.80;95.30
3842;DHT22;1936;47.074;15.336;2023-12-20T03:00:25;3.90;95.10
3842;DHT22;1936;47.074;15.336;2023-12-20T03:02:29;3.80;96.20
3842;DHT22;1936;47.074;15.336;2023-12-20T03:04:32;3.80;95.60
3842;DHT22;1936;47.074;15.336;2023-12-20T03:06:36;4.00;94.20
3842;DHT22;1936;47.074;15.336;2023-12-20T03:08:39;3.80;95.10
3842;DHT22;1936;47.074;15.336;2023-12-20T03:10:43;3.80;95.30
3842;DHT22;1936;47.074;15.336;2023-12-20T03:12:48;3.90;94.90
3842;DHT22;1936;47.074;15.336;2023-12-20T03:14:51;3.80;96.00
3842;DHT22;1936;47.074;15.336;2023-12-20T03:16:55;3.80;95.50
3842;DHT22;1936;47.074;15.336;2023-12-20T03:19:01;3.70;95.30
3842;DHT22;1936;47.074;15.336;2023-12-20T03:21:05;3.70;95.80
3842;DHT22;1936;47.074;15.336;2023-12-20T03:23:08;3.60;96.00
3842;DHT22;1936;47.074;15.336;2023-12-20T03:25:12;3.40;97.70
3842;DHT22;1936;47.074;15.336;2023-12-20T03:27:14;3.30;99.10
3842;DHT22;1936;47.074;15.336;2023-12-20T03:29:19;3.30;99.70
3842;DHT22;1936;47.074;15.336;2023-12-20T03:31:21;3.40;99.90
3842;DHT22;1936;47.074;15.336;2023-12-20T03:33:25;3.80;96.30
3842;DHT22;1936;47.074;15.336;2023-12-20T03:35:29;3.80;96.40
3842;DHT22;1936;47.074;15.336;2023-12-20T03:37:32;3.50;98.80
3842;DHT22;1936;47.074;15.336;2023-12-20T03:39:35;3.30;99.90
3842;DHT22;1936;47.074;15.336;2023-12-20T03:41:38;3.60;98.10
3842;DHT22;1936;47.074;15.336;2023-12-20T03:43:41;3.50;98.60
3842;DHT22;1936;47.074;15.336;2023-12-20T03:45:46;3.50;98.70
3842;DHT22;1936;47.074;15.336;2023-12-20T03:47:50;3.90;95.30
3842;DHT22;1936;47.074;15.336;2023-12-20T03:49:57;3.70;95.40
3842;DHT22;1936;47.074;15.336;2023-12-20T03:52:00;3.40;96.70
3842;DHT22;1936;47.074;15.336;2023-12-20T03:54:05;3.50;96.80
3842;DHT22;1936;47.074;15.336;2023-12-20T03:56:08;3.30;97.40
3842;DHT22;1936;47.074;15.336;2023-12-20T03:58:12;3.10;98.60
3842;DHT22;1936;47.074;15.336;2023-12-20T04:00:16;3.30;99.00
3842;DHT22;1936;47.074;15.336;2023-12-20T04:02:21;3.30;98.30
3842;DHT22;1936;47.074;15.336;2023-12-20T04:04:24;3.20;99.10
3842;DHT22;1936;47.074;15.336;2023-12-20T04:06:28;3.20;98.90
3842;DHT22;1936;47.074;15.336;2023-12-20T04:08:32;2.80;99.90
3842;DHT22;1936;47.074;15.336;2023-12-20T04:10:34;2.70;99.90
3842;DHT22;1936;47.074;15.336;2023-12-20T04:12:39;2.80;99.90
3842;DHT22;1936;47.074;15.336;2023-12-20T04:14:43;2.60;99.90
3842;DHT22;1936;47.074;15.336;2023-12-20T04:16:45;2.40;99.90
3842;DHT22;1936;47.074;15.336;2023-12-20T04:18:50;2.40;99.90
3842;DHT22;1936;47.074;15.336;2023-12-20T04:20:54;2.60;99.90
3842;DHT22;1936;47.074;15.336;2023-12-20T04:22:57;3.00;99.90
3842;DHT22;1936;47.074;15.336;2023-12-20T04:25:01;3.00;99.90
3842;DHT22;1936;47.074;15.336;2023-12-20T04:27:05;2.90;99.90
3842;DHT22;1936;47.074;15.336;2023-12-20T04:29:09;3.00;99.90
3842;DHT22;1936;47.074;15.336;2023-12-20T04:31:12;3.00;99.90
3842;DHT22;1936;47.074;15.336;2023-12-20T04:33:15;2.90;99.90
3842;DHT22;1936;47.074;15.336;2023-12-20T04:35:20;2.70;99.90
3842;DHT22;1936;47.074;15.336;2023-12-20T04:37:24;2.70;99.90
3842;DHT22;1936;47.074;15.336;2023-12-20T04:39:27;2.80;99.90
3842;DHT22;1936;47.074;15.336;2023-12-20T04:41:31;2.90;99.90
3842;DHT22;1936;47.074;15.336;2023-12-20T04:43:34;3.00;99.90
3842;DHT22;1936;47.074;15.336;2023-12-20T04:45:37;2.80;99.90
3842;DHT22;1936;47.074;15.336;2023-12-20T04:47:42;2.70;99.90
3842;DHT22;1936;47.074;15.336;2023-12-20T04:49:45;2.60;99.90
3842;DHT22;1936;47.074;15.336;2023-12-20T04:51:50;2.50;99.90
3842;DHT22;1936;47.074;15.336;2023-12-20T04:53:54;2.30;99.90
3842;DHT22;1936;47.074;15.336;2023-12-20T04:55:57;2.70;99.90
3842;DHT22;1936;47.074;15.336;2023-12-20T04:58:01;2.90;99.90
3842;DHT22;1936;47.074;15.336;2023-12-20T05:00:05;2.60;99.90
3842;DHT22;1936;47.074;15.336;2023-12-20T05:02:10;2.60;99.90
3842;DHT22;1936;47.074;15.336;2023-12-20T05:04:13;2.50;99.90
3842;DHT22;1936;47.074;15.336;2023-12-20T05:06:16;2.60;99.90
3842;DHT22;1936;47.074;15.336;2023-12-20T05:08:21;2.70;99.90
3842;DHT22;1936;47.074;15.336;2023-12-20T05:10:24;2.80;99.90
3842;DHT22;1936;47.074;15.336;2023-12-20T05:12:29;3.50;97.80
3842;DHT22;1936;47.074;15.336;2023-12-20T05:14:32;3.40;97.70
3842;DHT22;1936;47.074;15.336;2023-12-20T05:16:35;3.50;96.30
3842;DHT22;1936;47.074;15.336;2023-12-20T05:18:38;3.40;96.80
3842;DHT22;1936;47.074;15.336;2023-12-20T05:20:41;3.50;95.70
3842;DHT22;1936;47.074;15.336;2023-12-20T05:22:44;3.50;96.20
3842;DHT22;1936;47.074;15.336;2023-12-20T05:24:50;3.40;96.50
3842;DHT22;1936;47.074;15.336;2023-12-20T05:26:54;3.50;95.40
3842;DHT22;1936;47.074;15.336;2023-12-20T05:28:57;3.50;95.80
3842;DHT22;1936;47.074;15.336;2023-12-20T05:31:00;3.40;95.70
3842;DHT22;1936;47.074;15.336;2023-12-20T05:33:04;3.30;97.10
3842;DHT22;1936;47.074;15.336;2023-12-20T05:35:07;3.10;98.60
3842;DHT22;1936;47.074;15.336;2023-12-20T05:37:11;3.10;99.00
3842;DHT22;1936;47.074;15.336;2023-12-20T05:39:14;3.10;98.00
3842;DHT22;1936;47.074;15.336;2023-12-20T05:41:19;3.00;99.90
3842;DHT22;1936;47.074;15.336;2023-12-20T05:43:23;2.80;99.90
3842;DHT22;1936;47.074;15.336;2023-12-20T05:45:27;2.50;99.90
3842;DHT22;1936;47.074;15.336;2023-12-20T05:47:30;2.80;99.90
3842;DHT22;1936;47.074;15.336;2023-12-20T05:49:34;3.60;96.70
3842;DHT22;1936;47.074;15.336;2023-12-20T05:51:37;3.80;94.90
3842;DHT22;1936;47.074;15.336;2023-12-20T05:53:41;4.20;91.60
3842;DHT22;1936;47.074;15.336;2023-12-20T05:55:43;4.10;91.50
3842;DHT22;1936;47.074;15.336;2023-12-20T05:57:48;4.20;91.20
3842;DHT22;1936;47.074;15.336;2023-12-20T05:59:51;4.30;90.00
3842;DHT22;1936;47.074;15.336;2023-12-20T06:01:55;4.50;88.30
3842;DHT22;1936;47.074;15.336;2023-12-20T06:03:58;4.50;88.10
3842;DHT22;1936;47.074;15.336;2023-12-20T06:06:05;4.50;87.30
3842;DHT22;1936;47.074;15.336;2023-12-20T06:08:17;4.50;86.70
3842;DHT22;1936;47.074;15.336;2023-12-20T06:10:21;4.40;86.40
3842;DHT22;1936;47.074;15.336;2023-12-20T06:12:25;4.40;86.80
3842;DHT22;1936;47.074;15.336;2023-12-20T06:14:30;4.50;86.40
3842;DHT22;1936;47.074;15.336;2023-12-20T06:16:33;4.60;85.40
3842;DHT22;1936;47.074;15.336;2023-12-20T06:18:37;4.60;85.00
3842;DHT22;1936;47.074;15.336;2023-12-20T06:20:40;4.60;84.90
3842;DHT22;1936;47.074;15.336;2023-12-20T06:22:43;4.60;83.90
3842;DHT22;1936;47.074;15.336;2023-12-20T06:24:47;4.60;84.90
3842;DHT22;1936;47.074;15.336;2023-12-20T06:26:50;4.60;84.90
3842;DHT22;1936;47.074;15.336;2023-12-20T06:28:53;4.50;85.60
3842;DHT22;1936;47.074;15.336;2023-12-20T06:30:58;4.50;85.00
3842;DHT22;1936;47.074;15.336;2023-12-20T06:33:03;4.60;84.60
3842;DHT22;1936;47.074;15.336;2023-12-20T06:35:07;4.70;82.90
3842;DHT22;1936;47.074;15.336;2023-12-20T06:37:10;4.60;84.30
3842;DHT22;1936;47.074;15.336;2023-12-20T06:39:14;4.50;85.40
3842;DHT22;1936;47.074;15.336;2023-12-20T06:41:16;4.50;84.80
3842;DHT22;1936;47.074;15.336;2023-12-20T06:43:20;4.50;84.30
3842;DHT22;1936;47.074;15.336;2023-12-20T06:45:42;4.50;84.40
3842;DHT22;1936;47.074;15.336;2023-12-20T06:47:47;4.70;82.70
3842;DHT22;1936;47.074;15.336;2023-12-20T06:49:50;4.90;81.00
3842;DHT22;1936;47.074;15.336;2023-12-20T06:51:54;5.00;79.60
3842;DHT22;1936;47.074;15.336;2023-12-20T06:53:57;5.10;77.90
3842;DHT22;1936;47.074;15.336;2023-12-20T06:56:02;5.10;78.80
3842;DHT22;1936;47.074;15.336;2023-12-20T06:58:04;5.00;78.60
3842;DHT22;1936;47.074;15.336;2023-12-20T07:00:10;5.40;75.70
3842;DHT22;1936;47.074;15.336;2023-12-20T07:02:15;5.20;75.60
3842;DHT22;1936;47.074;15.336;2023-12-20T07:04:20;5.10;76.30
3842;DHT22;1936;47.074;15.336;2023-12-20T07:06:24;5.20;76.10
3842;DHT22;1936;47.074;15.336;2023-12-20T07:08:28;5.50;74.70
3842;DHT22;1936;47.074;15.336;2023-12-20T07:10:31;5.50;73.40
3842;DHT22;1936;47.074;15.336;2023-12-20T07:12:34;5.50;73.40
3842;DHT22;1936;47.074;15.336;2023-12-20T07:14:38;5.80;71.60
3842;DHT22;1936;47.074;15.336;2023-12-20T07:16:41;5.60;74.20
3842;DHT22;1936;47.074;15.336;2023-12-20T07:18:45;5.60;72.50
3842;DHT22;1936;47.074;15.336;2023-12-20T07:20:50;5.50;72.90
3842;DHT22;1936;47.074;15.336;2023-12-20T07:22:53;5.70;71.30
3842;DHT22;1936;47.074;15.336;2023-12-20T07:24:57;5.80;71.10
3842;DHT22;1936;47.074;15.336;2023-12-20T07:27:01;5.90;70.10
3842;DHT22;1936;47.074;15.336;2023-12-20T07:29:04;6.20;68.30
3842;DHT22;1936;47.074;15.336;2023-12-20T07:31:08;6.20;68.70
3842;DHT22;1936;47.074;15.336;2023-12-20T07:33:12;5.90;70.80
3842;DHT22;1936;47.074;15.336;2023-12-20T07:35:16;5.90;70.60
3842;DHT22;1936;47.074;15.336;2023-12-20T07:37:21;5.90;70.40
3842;DHT22;1936;47.074;15.336;2023-12-20T07:39:23;6.00;70.10
3842;DHT22;1936;47.074;15.336;2023-12-20T07:41:27;5.90;70.60
3842;DHT22;1936;47.074;15.336;2023-12-20T07:43:30;5.90;69.70
3842;DHT22;1936;47.074;15.336;2023-12-20T07:45:33;5.70;71.80
3842;DHT22;1936;47.074;15.336;2023-12-20T07:47:36;5.70;72.30
3842;DHT22;1936;47.074;15.336;2023-12-20T07:49:40;5.60;74.70
3842;DHT22;1936;47.074;15.336;2023-12-20T07:51:43;5.40;75.60
3842;DHT22;1936;47.074;15.336;2023-12-20T07:53:48;5.30;76.70
3842;DHT22;1936;47.074;15.336;2023-12-20T07:55:51;5.30;76.20
3842;DHT22;1936;47.074;15.336;2023-12-20T07:57:55;5.30;76.60
3842;DHT22;1936;47.074;15.336;2023-12-20T07:59:59;5.30;75.40
3842;DHT22;1936;47.074;15.336;2023-12-20T08:02:02;5.40;75.10
3842;DHT22;1936;47.074;15.336;2023-12-20T08:04:06;5.40;80.10
3842;DHT22;1936;47.074;15.336;2023-12-20T08:06:09;5.30;76.70
3842;DHT22;1936;47.074;15.336;2023-12-20T08:08:13;5.20;77.60
3842;DHT22;1936;47.074;15.336;2023-12-20T08:10:18;5.30;79.30
3842;DHT22;1936;47.074;15.336;2023-12-20T08:12:21;5.20;79.90
3842;DHT22;1936;47.074;15.336;2023-12-20T08:14:25;5.10;81.80
3842;DHT22;1936;47.074;15.336;2023-12-20T08:16:28;5.10;79.80
3842;DHT22;1936;47.074;15.336;2023-12-20T08:18:32;5.10;82.90
3842;DHT22;1936;47.074;15.336;2023-12-20T08:20:35;5.10;83.20
3842;DHT22;1936;47.074;15.336;2023-12-20T08:22:42;5.10;82.50
3842;DHT22;1936;47.074;15.336;2023-12-20T08:24:45;5.10;82.40
3842;DHT22;1936;47.074;15.336;2023-12-20T08:26:50;5.10;85.80
3842;DHT22;1936;47.074;15.336;2023-12-20T08:28:54;5.00;89.50
3842;DHT22;1936;47.074;15.336;2023-12-20T08:31:01;5.10;86.00
3842;DHT22;1936;47.074;15.336;2023-12-20T08:33:05;5.20;87.00
3842;DHT22;1936;47.074;15.336;2023-12-20T08:35:13;5.40;85.40
3842;DHT22;1936;47.074;15.336;2023-12-20T08:37:16;5.60;86.30
3842;DHT22;1936;47.074;15.336;2023-12-20T08:39:20;5.70;87.50
3842;DHT22;1936;47.074;15.336;2023-12-20T08:41:22;5.90;85.20
3842;DHT22;1936;47.074;15.336;2023-12-20T08:43:27;6.00;85.30
3842;DHT22;1936;47.074;15.336;2023-12-20T08:45:31;6.20;84.50
3842;DHT22;1936;47.074;15.336;2023-12-20T08:47:34;6.40;83.60
3842;DHT22;1936;47.074;15.336;2023-12-20T08:49:38;6.60;83.40
3842;DHT22;1936;47.074;15.336;2023-12-20T08:51:41;6.70;83.70
3842;DHT22;1936;47.074;15.336;2023-12-20T08:53:45;6.70;82.80
3842;DHT22;1936;47.074;15.336;2023-12-20T08:55:49;6.80;80.90
3842;DHT22;1936;47.074;15.336;2023-12-20T08:57:53;7.00;80.30
3842;DHT22;1936;47.074;15.336;2023-12-20T08:59:58;7.00;80.90
3842;DHT22;1936;47.074;15.336;2023-12-20T09:02:01;7.10;80.20
3842;DHT22;1936;47.074;15.336;2023-12-20T09:04:05;7.10;77.80
3842;DHT22;1936;47.074;15.336;2023-12-20T09:06:09;7.10;78.80
3842;DHT22;1936;47.074;15.336;2023-12-20T09:08:12;7.00;82.30
3842;DHT22;1936;47.074;15.336;2023-12-20T09:10:16;6.90;81.70
3842;DHT22;1936;47.074;15.336;2023-12-20T09:12:24;7.10;81.50
3842;DHT22;1936;47.074;15.336;2023-12-20T09:14:28;7.00;82.20
3842;DHT22;1936;47.074;15.336;2023-12-20T09:16:33;7.00;82.30
3842;DHT22;1936;47.074;15.336;2023-12-20T09:18:37;7.00;87.70
3842;DHT22;1936;47.074;15.336;2023-12-20T09:20:40;7.00;87.90
3842;DHT22;1936;47.074;15.336;2023-12-20T09:22:46;7.00;84.90
3842;DHT22;1936;47.074;15.336;2023-12-20T09:24:49;7.10;83.00
3842;DHT22;1936;47.074;15.336;2023-12-20T09:26:53;7.30;82.80
3842;DHT22;1936;47.074;15.336;2023-12-20T09:28:55;7.30;86.90
3842;DHT22;1936;47.074;15.336;2023-12-20T09:30:58;7.30;84.90
3842;DHT22;1936;47.074;15.336;2023-12-20T09:33:04;7.30;82.00
3842;DHT22;1936;47.074;15.336;2023-12-20T09:35:09;7.40;83.80
3842;DHT22;1936;47.074;15.336;2023-12-20T09:37:13;7.50;87.80
3842;DHT22;1936;47.074;15.336;2023-12-20T09:39:17;7.40;82.10
3842;DHT22;1936;47.074;15.336;2023-12-20T09:41:23;7.50;80.70
3842;DHT22;1936;47.074;15.336;2023-12-20T09:43:29;7.80;78.20
3842;DHT22;1936;47.074;15.336;2023-12-20T09:45:33;7.90;78.10
3842;DHT22;1936;47.074;15.336;2023-12-20T09:47:37;7.90;75.60
3842;DHT22;1936;47.074;15.336;2023-12-20T09:49:42;8.30;73.70
3842;DHT22;1936;47.074;15.336;2023-12-20T09:51:47;8.60;70.20
3842;DHT22;1936;47.074;15.336;2023-12-20T09:53:54;8.60;70.70
3842;DHT22;1936;47.074;15.336;2023-12-20T09:55:59;8.50;70.50
3842;DHT22;1936;47.074;15.336;2023-12-20T09:58:03;9.00;72.30
3842;DHT22;1936;47.074;15.336;2023-12-20T10:00:07;9.20;68.80
3842;DHT22;1936;47.074;15.336;2023-12-20T10:02:13;9.20;70.60
3842;DHT22;1936;47.074;15.336;2023-12-20T10:04:17;8.80;71.40
3842;DHT22;1936;47.074;15.336;2023-12-20T10:06:32;8.50;69.80
3842;DHT22;1936;47.074;15.336;2023-12-20T10:08:36;8.40;68.40
3842;DHT22;1936;47.074;15.336;2023-12-20T10:10:39;8.50;69.50
3842;DHT22;1936;47.074;15.336;2023-12-20T10:13:02;8.60;72.30
3842;DHT22;1936;47.074;15.336;2023-12-20T10:15:06;8.60;69.50
3842;DHT22;1936;47.074;15.336;2023-12-20T10:17:09;8.50;71.70
3842;DHT22;1936;47.074;15.336;2023-12-20T10:19:12;8.60;71.50
3842;DHT22;1936;47.074;15.336;2023-12-20T10:21:15;8.70;71.60
3842;DHT22;1936;47.074;15.336;2023-12-20T10:23:22;8.70;68.60
3842;DHT22;1936;47.074;15.336;2023-12-20T10:25:26;8.60;80.00
3842;DHT22;1936;47.074;15.336;2023-12-20T10:27:30;8.60;79.50
3842;DHT22;1936;47.074;15.336;2023-12-20T10:29:34;8.60;72.20
3842;DHT22;1936;47.074;15.336;2023-12-20T10:31:39;8.60;73.80
3842;DHT22;1936;47.074;15.336;2023-12-20T10:33:44;8.80;75.10
3842;DHT22;1936;47.074;15.336;2023-12-20T10:35:48;8.90;77.10
3842;DHT22;1936;47.074;15.336;2023-12-20T10:37:54;9.10;74.80
3842;DHT22;1936;47.074;15.336;2023-12-20T10:40:03;9.00;73.90
3842;DHT22;1936;47.074;15.336;2023-12-20T10:42:09;8.90;73.00
3842;DHT22;1936;47.074;15.336;2023-12-20T10:44:13;9.00;79.40
3842;DHT22;1936;47.074;15.336;2023-12-20T10:46:19;8.80;74.60
3842;DHT22;1936;47.074;15.336;2023-12-20T10:48:23;9.00;75.50
3842;DHT22;1936;47.074;15.336;2023-12-20T10:50:32;8.80;75.70
3842;DHT22;1936;47.074;15.336;2023-12-20T10:52:39;8.90;72.00
3842;DHT22;1936;47.074;15.336;2023-12-20T10:54:43;8.90;78.30
3842;DHT22;1936;47.074;15.336;2023-12-20T10:56:52;8.80;79.90
3842;DHT22;1936;47.074;15.336;2023-12-20T10:58:59;8.50;79.90
3842;DHT22;1936;47.074;15.336;2023-12-20T11:01:06;8.60;77.90
3842;DHT22;1936;47.074;15.336;2023-12-20T11:03:12;8.50;78.60
3842;DHT22;1936;47.074;15.336;2023-12-20T11:05:23;8.50;80.80
3842;DHT22;1936;47.074;15.336;2023-12-20T11:07:33;8.50;81.00
3842;DHT22;1936;47.074;15.336;2023-12-20T11:09:40;8.30;82.80
3842;DHT22;1936;47.074;15.336;2023-12-20T11:12:04;8.40;82.90
3842;DHT22;1936;47.074;15.336;2023-12-20T11:14:15;8.30;81.80
3842;DHT22;1936;47.074;15.336;2023-12-20T11:16:20;8.30;79.10
3842;DHT22;1936;47.074;15.336;2023-12-20T11:18:29;8.40;81.70
3842;DHT22;1936;47.074;15.336;2023-12-20T11:20:36;8.60;78.10
3842;DHT22;1936;47.074;15.336;2023-12-20T11:22:51;8.60;80.90
3842;DHT22;1936;47.074;15.336;2023-12-20T11:24:59;8.80;83.50
3842;DHT22;1936;47.074;15.336;2023-12-20T11:27:07;8.90;78.00
3842;DHT22;1936;47.074;15.336;2023-12-20T11:29:29;8.90;80.40
3842;DHT22;1936;47.074;15.336;2023-12-20T11:31:40;8.70;77.80
3842;DHT22;1936;47.074;15.336;2023-12-20T11:33:43;8.60;79.20
3842;DHT22;1936;47.074;15.336;2023-12-20T11:35:50;8.90;80.30
3842;DHT22;1936;47.074;15.336;2023-12-20T11:37:54;9.20;80.90
3842;DHT22;1936;47.074;15.336;2023-12-20T11:40:02;9.40;83.10
3842;DHT22;1936;47.074;15.336;2023-12-20T11:42:07;9.50;77.20
3842;DHT22;1936;47.074;15.336;2023-12-20T11:44:13;9.50;76.30
3842;DHT22;1936;47.074;15.336;2023-12-20T11:46:16;9.70;76.70
3842;DHT22;1936;47.074;15.336;2023-12-20T11:48:21;10.00;71.10
3842;DHT22;1936;47.074;15.336;2023-12-20T11:50:24;10.20;73.50
3842;DHT22;1936;47.074;15.336;2023-12-20T11:52:28;10.20;68.20
3842;DHT22;1936;47.074;15.336;2023-12-20T11:54:32;10.00;71.50
3842;DHT22;1936;47.074;15.336;2023-12-20T11:56:36;10.10;73.40
3842;DHT22;1936;47.074;15.336;2023-12-20T11:58:41;10.50;69.80
3842;DHT22;1936;47.074;15.336;2023-12-20T12:00:45;10.50;70.10
3842;DHT22;1936;47.074;15.336;2023-12-20T12:02:58;10.40;69.50
3842;DHT22;1936;47.074;15.336;2023-12-20T12:05:01;10.40;67.20
3842;DHT22;1936;47.074;15.336;2023-12-20T12:07:07;10.10;66.70
3842;DHT22;1936;47.074;15.336;2023-12-20T12:09:10;10.20;67.10
3842;DHT22;1936;47.074;15.336;2023-12-20T12:11:14;10.20;66.70
3842;DHT22;1936;47.074;15.336;2023-12-20T12:13:17;10.00;67.00
3842;DHT22;1936;47.074;15.336;2023-12-20T12:15:22;10.00;70.10
3842;DHT22;1936;47.074;15.336;2023-12-20T12:17:24;9.90;69.20
3842;DHT22;1936;47.074;15.336;2023-12-20T12:19:30;9.70;69.10
3842;DHT22;1936;47.074;15.336;2023-12-20T12:21:37;9.70;70.10
3842;DHT22;1936;47.074;15.336;2023-12-20T12:23:41;9.60;71.60
3842;DHT22;1936;47.074;15.336;2023-12-20T12:25:45;9.50;70.70
3842;DHT22;1936;47.074;15.336;2023-12-20T12:27:48;9.50;72.30
3842;DHT22;1936;47.074;15.336;2023-12-20T12:30:01;9.50;72.50
3842;DHT22;1936;47.074;15.336;2023-12-20T12:32:09;9.60;72.70
3842;DHT22;1936;47.074;15.336;2023-12-20T12:34:12;9.60;72.80
3842;DHT22;1936;47.074;15.336;2023-12-20T12:36:16;9.60;67.80
3842;DHT22;1936;47.074;15.336;2023-12-20T12:38:20;9.50;68.60
3842;DHT22;1936;47.074;15.336;2023-12-20T12:40:24;9.60;66.90
3842;DHT22;1936;47.074;15.336;2023-12-20T12:42:28;9.60;66.70
3842;DHT22;1936;47.074;15.336;2023-12-20T12:44:31;9.50;68.30
3842;DHT22;1936;47.074;15.336;2023-12-20T12:46:35;9.40;72.20
3842;DHT22;1936;47.074;15.336;2023-12-20T12:48:39;9.40;72.20
3842;DHT22;1936;47.074;15.336;2023-12-20T12:50:46;9.40;72.50
3842;DHT22;1936;47.074;15.336;2023-12-20T12:52:50;9.40;72.20
3842;DHT22;1936;47.074;15.336;2023-12-20T12:54:53;9.40;72.90
3842;DHT22;1936;47.074;15.336;2023-12-20T12:56:57;9.50;72.80
3842;DHT22;1936;47.074;15.336;2023-12-20T12:59:01;9.60;74.20
3842;DHT22;1936;47.074;15.336;2023-12-20T13:01:04;9.40;83.50
3842;DHT22;1936;47.074;15.336;2023-12-20T13:03:08;9.60;82.30
3842;DHT22;1936;47.074;15.336;2023-12-20T13:05:13;9.40;82.50
3842;DHT22;1936;47.074;15.336;2023-12-20T13:07:16;9.60;77.00
3842;DHT22;1936;47.074;15.336;2023-12-20T13:09:19;9.80;76.20
3842;DHT22;1936;47.074;15.336;2023-12-20T13:11:22;10.00;79.00
3842;DHT22;1936;47.074;15.336;2023-12-20T13:13:25;10.50;77.20
3842;DHT22;1936;47.074;15.336;2023-12-20T13:15:29;11.20;75.40
3842;DHT22;1936;47.074;15.336;2023-12-20T13:17:33;11.40;79.10
3842;DHT22;1936;47.074;15.336;2023-12-20T13:19:37;11.20;77.50
3842;DHT22;1936;47.074;15.336;2023-12-20T13:21:42;11.40;77.40
3842;DHT22;1936;47.074;15.336;2023-12-20T13:23:44;11.50;81.90
3842;DHT22;1936;47.074;15.336;2023-12-20T13:25:48;11.70;81.20
3842;DHT22;1936;47.074;15.336;2023-12-20T13:27:53;11.50;82.70
3842;DHT22;1936;47.074;15.336;2023-12-20T13:29:58;11.40;83.20